createdAt,value
2023-03-17T00:01:54.771Z,85543.38
2023-03-17T00:04:27.677Z,85503.41
2023-03-17T00:06:55.059Z,85524.19
2023-03-17T00:09:22.697Z,85543.44
2023-03-17T00:11:50.416Z,85510.50
2023-03-17T00:14:18.177Z,85522.91
2023-03-17T00:16:49.997Z,85538.81
2023-03-17T00:19:31.496Z,85535.34
2023-03-17T00:22:00.159Z,85540.81
2023-03-17T00:24:27.696Z,85511.91
2023-03-17T00:26:54.615Z,85450.00
2023-03-17T00:29:21.705Z,85485.66
2023-03-17T00:31:50.923Z,85538.63
2023-03-17T00:34:19.214Z,85539.22
2023-03-17T00:36:49.885Z,85535.88
2023-03-17T00:39:18.764Z,85524.75
2023-03-17T00:44:13.189Z,85459.53
2023-03-17T00:46:41.889Z,85540.72
2023-03-17T00:49:18.839Z,85547.53
2023-03-17T00:51:46.581Z,85551.63
2023-03-17T00:54:15.660Z,85485.06
2023-03-17T00:56:44.021Z,85542.81
2023-03-17T00:59:37.410Z,85511.91
2023-03-17T01:02:04.624Z,85552.41
2023-03-17T01:04:32.373Z,85509.06
2023-03-17T01:07:00.054Z,85557.09
2023-03-17T01:09:34.129Z,85489.69
2023-03-17T01:12:01.661Z,85491.06
2023-03-17T01:14:29.340Z,85508.91
2023-03-17T01:16:56.706Z,85563.97
2023-03-17T01:19:24.024Z,85508.91
2023-03-17T01:21:51.127Z,85524.69
2023-03-17T01:24:18.073Z,85528.06
2023-03-17T01:26:45.197Z,85560.44
2023-03-17T01:29:15.210Z,85506.16
2023-03-17T01:31:42.353Z,85530.19
2023-03-17T01:34:10.235Z,85563.94
2023-03-17T01:36:37.687Z,85563.94
2023-03-17T01:39:05.490Z,85528.19
2023-03-17T01:41:37.698Z,85567.19
2023-03-17T01:44:05.113Z,85538.94
2023-03-17T01:46:35.528Z,85570.00
2023-03-17T01:49:17.815Z,85574.75
2023-03-17T01:51:57.729Z,85578.78
2023-03-17T01:54:31.160Z,85578.78
2023-03-17T01:57:04.073Z,85502.47
2023-03-17T01:59:35.981Z,85530.66
2023-03-17T02:02:06.870Z,85582.84
2023-03-17T02:04:42.272Z,85574.66
2023-03-17T02:07:10.381Z,85584.91
2023-03-17T02:09:41.607Z,85529.13
2023-03-17T02:12:10.422Z,85549.72
2023-03-17T02:14:37.582Z,85582.19
2023-03-17T02:17:04.634Z,85509.81
2023-03-17T02:19:31.762Z,85519.50
2023-03-17T02:22:00.254Z,85548.31
2023-03-17T02:24:37.806Z,85595.09
2023-03-17T02:27:13.075Z,85592.97
2023-03-17T02:29:40.534Z,85581.28
2023-03-17T02:32:10.364Z,85597.19
2023-03-17T02:34:37.507Z,85572.97
2023-03-17T02:37:05.883Z,85600.53
2023-03-17T02:39:33.072Z,85591.50
2023-03-17T02:42:00.212Z,85572.75
2023-03-17T02:44:27.267Z,85596.28
2023-03-17T02:46:54.356Z,85611.34
2023-03-17T02:49:22.372Z,85589.28
2023-03-17T02:51:49.431Z,85594.06
2023-03-17T02:54:16.370Z,85631.91
2023-03-17T02:56:43.564Z,85615.34
2023-03-17T02:59:10.665Z,85618.13
2023-03-17T03:01:39.622Z,85619.47
2023-03-17T03:04:07.245Z,85556.81
2023-03-17T03:06:34.739Z,85610.53
2023-03-17T03:09:01.893Z,85600.84
2023-03-17T03:11:29.488Z,85633.16
2023-03-17T03:13:56.570Z,85613.63
2023-03-17T03:16:23.601Z,85635.63
2023-03-17T03:18:50.605Z,85641.13
2023-03-17T03:21:17.607Z,85623.78
2023-03-17T03:23:44.690Z,85643.78
2023-03-17T03:26:12.435Z,85530.13
2023-03-17T03:28:39.454Z,85641.00
2023-03-17T03:31:07.660Z,85642.41
2023-03-17T03:33:35.085Z,85637.00
2023-03-17T03:36:02.363Z,85650.72
2023-03-17T03:38:29.785Z,85599.59
2023-03-17T03:40:56.920Z,85654.69
2023-03-17T03:43:24.376Z,85598.03
2023-03-17T03:45:52.016Z,85647.75
2023-03-17T03:48:19.020Z,85624.19
2023-03-17T03:50:45.969Z,85602.81
2023-03-17T03:53:13.738Z,85606.03
2023-03-17T03:55:41.053Z,85605.94
2023-03-17T03:58:08.985Z,85664.53
2023-03-17T04:00:36.162Z,85662.28
2023-03-17T04:03:03.206Z,85674.69
2023-03-17T04:05:30.367Z,85632.56
2023-03-17T04:07:57.297Z,85625.03
2023-03-17T04:10:24.323Z,85673.19
2023-03-17T04:12:51.289Z,85675.81
2023-03-17T04:15:19.973Z,85674.56
2023-03-17T04:17:47.730Z,85670.47
2023-03-17T04:20:18.698Z,85635.84
2023-03-17T04:22:45.623Z,85645.44
2023-03-17T04:25:14.646Z,85674.91
2023-03-17T04:27:42.983Z,85595.53
2023-03-17T04:30:13.910Z,85640.84
2023-03-17T04:32:41.979Z,85667.09
2023-03-17T04:35:13.876Z,85652.66
2023-03-17T04:37:41.238Z,85699.28
2023-03-17T04:40:10.159Z,85697.28
2023-03-17T04:42:38.146Z,85664.09
2023-03-17T04:45:06.804Z,85704.25
2023-03-17T04:47:34.229Z,85683.47
2023-03-17T04:50:02.139Z,85695.22
2023-03-17T04:52:29.305Z,85677.31
2023-03-17T04:54:56.457Z,85708.44
2023-03-17T04:57:24.676Z,85654.00
2023-03-17T04:59:51.876Z,85690.53
2023-03-17T05:02:19.100Z,85657.53
2023-03-17T05:04:46.604Z,85622.91
2023-03-17T05:07:14.549Z,85683.34
2023-03-17T05:09:42.151Z,85656.97
2023-03-17T05:12:10.188Z,85731.34
2023-03-17T05:14:37.854Z,85670.69
2023-03-17T05:17:05.043Z,85731.53
2023-03-17T05:19:32.192Z,85698.88
2023-03-17T05:21:59.393Z,85686.59
2023-03-17T05:24:27.143Z,85674.47
2023-03-17T05:26:54.312Z,85744.94
2023-03-17T05:29:21.233Z,85719.44
2023-03-17T05:31:48.568Z,85713.13
2023-03-17T05:34:16.188Z,85756.09
2023-03-17T05:36:43.771Z,85773.16
2023-03-17T05:39:11.901Z,85700.19
2023-03-17T05:41:39.665Z,85735.97
2023-03-17T05:44:06.720Z,85749.78
2023-03-17T05:46:33.859Z,85719.88
2023-03-17T05:49:00.926Z,85710.75
2023-03-17T05:51:27.872Z,85688.06
2023-03-17T05:53:54.780Z,85787.44
2023-03-17T05:56:22.006Z,85785.84
2023-03-17T05:58:49.002Z,85785.81
2023-03-17T06:01:16.133Z,85784.50
2023-03-17T06:03:43.362Z,85664.44
2023-03-17T06:06:10.657Z,85770.59
2023-03-17T06:09:02.886Z,85687.97
2023-03-17T06:11:29.822Z,85799.56
2023-03-17T06:13:57.206Z,85731.94
2023-03-17T06:16:24.255Z,85806.97
2023-03-17T06:18:51.310Z,85802.88
2023-03-17T06:21:18.273Z,85801.28
2023-03-17T06:23:45.464Z,85757.81
2023-03-17T06:26:12.677Z,85793.63
2023-03-17T06:28:39.630Z,85748.06
2023-03-17T06:31:07.523Z,85779.91
2023-03-17T06:33:35.492Z,85770.25
2023-03-17T06:36:03.451Z,85822.13
2023-03-17T06:38:30.523Z,85766.09
2023-03-17T06:40:58.127Z,85796.06
2023-03-17T06:43:25.287Z,85787.91
2023-03-17T06:45:52.951Z,85823.16
2023-03-17T06:48:20.109Z,85812.84
2023-03-17T06:50:50.325Z,85799.03
2023-03-17T06:53:17.448Z,85832.91
2023-03-17T06:55:45.138Z,85833.63
2023-03-17T06:58:13.409Z,85835.69
2023-03-17T07:00:40.715Z,85804.56
2023-03-17T07:03:10.180Z,85754.81
2023-03-17T07:05:39.440Z,85819.09
2023-03-17T07:08:06.894Z,85841.88
2023-03-17T07:10:34.748Z,85850.72
2023-03-17T07:13:02.563Z,85831.56
2023-03-17T07:15:34.917Z,85821.91
2023-03-17T07:18:02.603Z,85804.03
2023-03-17T07:20:29.881Z,85796.50
2023-03-17T07:22:57.567Z,85842.13
2023-03-17T07:25:24.833Z,85855.75
2023-03-17T07:27:52.184Z,85809.94
2023-03-17T07:30:19.537Z,85855.69
2023-03-17T07:32:47.407Z,85857.38
2023-03-17T07:35:15.706Z,85805.75
2023-03-17T07:37:43.243Z,85848.06
2023-03-17T07:40:11.285Z,85851.97
2023-03-17T07:42:38.823Z,85858.97
2023-03-17T07:45:08.060Z,85819.66
2023-03-17T07:47:35.372Z,85861.91
2023-03-17T07:50:02.728Z,85772.13
2023-03-17T07:52:29.917Z,85852.53
2023-03-17T07:54:58.392Z,85820.63
2023-03-17T07:57:25.655Z,85841.41
2023-03-17T07:59:52.792Z,85848.56
2023-03-17T08:02:20.145Z,85822.28
2023-03-17T08:04:47.413Z,85865.31
2023-03-17T08:07:15.748Z,85866.03
2023-03-17T08:09:42.880Z,85862.06
2023-03-17T08:12:10.459Z,85868.19
2023-03-17T08:14:37.668Z,85861.25
2023-03-17T08:17:05.067Z,85839.88
2023-03-17T08:19:32.582Z,85869.69
2023-03-17T08:21:59.663Z,85839.28
2023-03-17T08:24:27.316Z,85768.22
2023-03-17T08:26:54.534Z,85829.56
2023-03-17T08:29:21.550Z,85856.56
2023-03-17T08:31:48.707Z,85799.16
2023-03-17T08:34:16.718Z,85838.72
2023-03-17T08:36:46.877Z,85882.19
2023-03-17T08:39:14.235Z,85842.94
2023-03-17T08:41:41.849Z,85863.75
2023-03-17T08:44:09.407Z,85834.56
2023-03-17T08:46:37.035Z,85797.75
2023-03-17T08:49:04.333Z,85836.66
2023-03-17T08:51:34.848Z,85875.47
2023-03-17T08:54:02.523Z,85880.97
2023-03-17T08:56:29.813Z,85879.63
2023-03-17T08:58:57.339Z,85809.13
2023-03-17T09:01:24.944Z,85872.72
2023-03-17T09:03:54.969Z,85869.53
2023-03-17T09:06:23.333Z,85872.53
2023-03-17T09:08:55.609Z,85878.06
2023-03-17T09:11:30.283Z,85875.44
2023-03-17T09:13:57.455Z,85838.88
2023-03-17T09:16:25.018Z,85840.91
2023-03-17T09:18:52.279Z,85883.03
2023-03-17T09:21:19.781Z,85837.34
2023-03-17T09:23:50.001Z,85839.63
2023-03-17T09:26:17.194Z,85852.78
2023-03-17T09:28:44.910Z,85832.19
2023-03-17T09:31:13.140Z,85867.53
2023-03-17T09:33:41.763Z,85834.41
2023-03-17T09:36:10.989Z,85878.75
2023-03-17T09:38:38.721Z,85845.69
2023-03-17T09:41:29.311Z,85880.28
2023-03-17T09:44:18.252Z,85891.19
2023-03-17T09:47:07.453Z,85881.63
2023-03-17T09:49:51.964Z,85888.47
2023-03-17T09:52:27.431Z,85826.31
2023-03-17T09:54:54.989Z,85850.25
2023-03-17T09:57:30.710Z,85828.84
2023-03-17T10:00:05.859Z,85889.59
2023-03-17T10:02:40.054Z,85882.84
2023-03-17T10:05:19.902Z,85864.16
2023-03-17T10:07:59.174Z,85892.59
2023-03-17T10:10:30.620Z,85888.50
2023-03-17T10:13:16.272Z,85893.34
2023-03-17T10:15:56.248Z,85851.84
2023-03-17T10:18:28.109Z,85894.03
2023-03-17T10:21:00.203Z,85856.81
2023-03-17T10:23:31.649Z,85853.41
2023-03-17T10:26:07.775Z,85840.03
2023-03-17T10:28:36.556Z,85833.94
2023-03-17T10:31:19.778Z,85813.22
2023-03-17T10:33:52.556Z,85847.09
2023-03-17T10:36:38.202Z,85860.31
2023-03-17T10:39:07.258Z,85884.53
2023-03-17T10:41:41.155Z,85867.34
2023-03-17T10:44:29.696Z,85887.38
2023-03-17T10:46:57.359Z,85881.97
2023-03-17T10:49:26.749Z,85825.34
2023-03-17T10:51:55.359Z,85829.66
2023-03-17T10:54:26.485Z,85867.59
2023-03-17T10:57:02.867Z,85819.47
2023-03-17T10:59:37.739Z,85835.97
2023-03-17T11:02:19.011Z,85882.81
2023-03-17T11:04:46.300Z,85842.22
2023-03-17T11:07:20.478Z,85825.50
2023-03-17T11:09:54.768Z,85862.16
2023-03-17T11:12:26.646Z,85863.50
2023-03-17T11:15:03.496Z,85839.47
2023-03-17T11:17:40.373Z,85873.38
2023-03-17T11:20:13.996Z,85878.13
2023-03-17T11:22:43.907Z,85869.81
2023-03-17T11:25:19.524Z,85882.19
2023-03-17T11:28:12.204Z,85871.84
2023-03-17T11:30:52.453Z,85832.56
2023-03-17T11:34:00.380Z,85876.69
2023-03-17T11:36:43.539Z,85871.25
2023-03-17T11:39:17.605Z,85874.00
2023-03-17T11:42:00.462Z,85873.34
2023-03-17T11:45:00.322Z,85852.63
2023-03-17T11:47:45.190Z,85876.78
2023-03-17T11:50:12.438Z,85882.34
2023-03-17T11:53:11.227Z,85842.94
2023-03-17T11:55:45.561Z,85860.31
2023-03-17T11:58:37.189Z,85824.50
2023-03-17T12:01:09.174Z,85868.63
2023-03-17T12:03:49.222Z,85874.16
2023-03-17T12:06:21.843Z,85808.00
2023-03-17T12:09:00.092Z,85870.72
2023-03-17T12:11:31.972Z,85859.09
2023-03-17T12:14:21.970Z,85860.50
2023-03-17T12:17:05.456Z,85860.44
2023-03-17T12:19:46.171Z,85867.38
2023-03-17T12:22:19.436Z,85869.41
2023-03-17T12:25:09.311Z,85857.00
2023-03-17T12:28:04.507Z,85789.44
2023-03-17T12:30:54.638Z,85865.94
2023-03-17T12:33:31.748Z,85827.41
2023-03-17T12:36:01.307Z,85877.03
2023-03-17T12:38:39.986Z,85883.94
2023-03-17T12:41:27.178Z,85872.97
2023-03-17T12:43:59.969Z,85855.69
2023-03-17T12:46:43.756Z,85801.84
2023-03-17T12:49:43.136Z,85790.19
2023-03-17T12:52:24.583Z,85857.00
2023-03-17T12:54:53.890Z,85849.47
2023-03-17T12:57:27.373Z,85834.25
2023-03-17T13:00:01.264Z,85874.28
2023-03-17T13:02:28.554Z,85875.69
2023-03-17T13:05:00.726Z,85874.34
2023-03-17T13:07:55.945Z,85882.53
2023-03-17T13:10:48.877Z,85872.97
2023-03-17T13:13:43.711Z,85879.81
2023-03-17T13:16:41.772Z,85878.34
2023-03-17T13:19:32.715Z,85883.16
2023-03-17T13:22:00.685Z,85883.84
2023-03-17T13:24:52.069Z,85887.94
2023-03-17T13:27:31.447Z,85894.69
2023-03-17T13:30:00.309Z,85890.63
2023-03-17T13:32:27.282Z,85889.94
2023-03-17T13:35:16.817Z,85888.53
2023-03-17T13:38:13.555Z,85872.66
2023-03-17T13:41:05.924Z,85876.78
2023-03-17T13:43:54.661Z,85891.94
2023-03-17T13:46:36.821Z,85889.09
2023-03-17T13:49:24.268Z,85889.09
2023-03-17T13:52:03.742Z,85860.81
2023-03-17T13:54:40.798Z,85898.72
2023-03-17T13:57:29.299Z,85859.41
2023-03-17T14:00:23.572Z,85900.81
2023-03-17T14:02:59.332Z,85876.69
2023-03-17T14:05:30.943Z,85857.19
2023-03-17T14:08:16.876Z,85879.97
2023-03-17T14:10:52.668Z,85884.78
2023-03-17T14:13:37.994Z,85795.19
2023-03-17T14:16:11.864Z,85895.81
2023-03-17T14:18:42.546Z,85884.59
2023-03-17T14:21:32.809Z,85909.53
2023-03-17T14:24:02.748Z,85879.13
2023-03-17T14:26:31.643Z,85799.22
2023-03-17T14:29:04.974Z,85916.38
2023-03-17T14:31:32.477Z,85908.25
2023-03-17T14:34:01.373Z,85890.38
2023-03-17T14:36:32.419Z,85906.94
2023-03-17T14:38:59.534Z,85810.31
2023-03-17T14:41:28.652Z,85878.53
2023-03-17T14:44:00.953Z,85905.66
2023-03-17T14:46:41.331Z,85878.81
2023-03-17T14:49:23.210Z,85878.06
2023-03-17T14:51:53.582Z,85898.81
2023-03-17T14:54:24.372Z,85889.84
2023-03-17T14:57:02.402Z,85901.50
2023-03-17T14:59:37.120Z,85891.81
2023-03-17T15:02:17.271Z,85894.50
2023-03-17T15:05:30.998Z,85896.44
2023-03-17T15:07:58.266Z,85857.69
2023-03-17T15:10:34.464Z,85902.53
2023-03-17T15:13:04.968Z,85900.50
2023-03-17T15:15:35.592Z,85903.94
2023-03-17T15:18:12.863Z,85888.78
2023-03-17T15:20:43.438Z,85854.34
2023-03-17T15:23:25.393Z,85891.69
2023-03-17T15:25:57.152Z,85849.47
2023-03-17T15:28:31.660Z,85789.50
2023-03-17T15:31:13.451Z,85901.97
2023-03-17T15:33:42.227Z,85892.28
2023-03-17T15:36:31.365Z,85901.31
2023-03-17T15:38:59.217Z,85866.75
2023-03-17T15:41:26.514Z,85865.41
2023-03-17T15:43:53.875Z,85835.00
2023-03-17T15:46:31.230Z,85899.88
2023-03-17T15:48:58.697Z,85806.00
2023-03-17T15:51:26.977Z,85855.59
2023-03-17T15:53:54.090Z,85908.06
2023-03-17T15:56:22.441Z,85883.38
2023-03-17T15:58:52.457Z,85905.38
2023-03-17T16:01:20.964Z,85910.78
2023-03-17T16:03:49.046Z,85861.03
2023-03-17T16:06:19.056Z,85899.03
2023-03-17T16:08:46.571Z,85885.19
2023-03-17T16:11:15.631Z,85925.81
2023-03-17T16:13:42.897Z,85855.50
2023-03-17T16:16:18.100Z,85927.72
2023-03-17T16:18:47.107Z,85869.72
2023-03-17T16:21:14.390Z,85920.19
2023-03-17T16:23:41.709Z,85932.53
2023-03-17T16:26:15.641Z,85935.19
2023-03-17T16:28:44.792Z,85931.09
2023-03-17T16:31:30.319Z,85932.41
2023-03-17T16:33:58.099Z,85925.47
2023-03-17T16:36:26.326Z,85762.59
2023-03-17T16:38:53.931Z,85937.28
2023-03-17T16:41:24.790Z,85929.06
2023-03-17T16:44:02.634Z,85935.31
2023-03-17T16:46:35.199Z,85906.25
2023-03-17T16:49:02.737Z,85935.31
2023-03-17T16:51:30.596Z,85942.88
2023-03-17T16:53:57.718Z,85932.50
2023-03-17T16:56:27.448Z,85905.56
2023-03-17T16:58:54.606Z,85913.00
2023-03-17T17:01:26.789Z,85881.28
2023-03-17T17:03:54.462Z,85946.31
2023-03-17T17:06:23.073Z,85856.44
2023-03-17T17:08:51.400Z,85924.78
2023-03-17T17:11:20.311Z,85955.25
2023-03-17T17:13:48.993Z,85904.00
2023-03-17T17:16:31.199Z,85932.34
2023-03-17T17:18:59.422Z,85928.13
2023-03-17T17:21:27.241Z,85961.28
2023-03-17T17:23:55.146Z,85901.75
2023-03-17T17:26:23.107Z,85854.94
2023-03-17T17:28:50.314Z,85966.03
2023-03-17T17:31:17.599Z,85968.81
2023-03-17T17:33:45.252Z,85948.69
2023-03-17T17:36:16.609Z,85969.97
2023-03-17T17:38:44.145Z,85926.59
2023-03-17T17:41:12.674Z,85949.81
2023-03-17T17:43:40.462Z,85914.09
2023-03-17T17:46:12.641Z,85969.34
2023-03-17T17:48:39.842Z,85976.19
2023-03-17T17:51:07.202Z,85965.94
2023-03-17T17:53:34.467Z,85976.09
2023-03-17T17:56:09.070Z,85926.41
2023-03-17T17:58:36.134Z,85923.06
2023-03-17T18:01:05.624Z,85970.72
2023-03-17T18:03:33.299Z,85934.94
2023-03-17T18:06:01.322Z,85965.34
2023-03-17T18:08:28.496Z,85946.66
2023-03-17T18:10:57.337Z,85908.59
2023-03-17T18:13:25.022Z,85966.53
2023-03-17T18:15:52.445Z,85971.28
2023-03-17T18:18:19.648Z,85965.00
2023-03-17T18:20:46.665Z,85927.13
2023-03-17T18:23:13.814Z,85969.19
2023-03-17T18:25:41.365Z,85907.84
2023-03-17T18:28:08.469Z,85898.91
2023-03-17T18:30:35.869Z,85945.72
2023-03-17T18:33:09.892Z,85940.81
2023-03-17T18:35:37.765Z,85968.47
2023-03-17T18:38:04.954Z,85977.34
2023-03-17T18:40:32.043Z,85951.19
2023-03-17T18:42:59.192Z,85935.25
2023-03-17T18:45:26.612Z,85975.94
2023-03-17T18:47:53.668Z,85930.94
2023-03-17T18:50:22.211Z,85939.97
2023-03-17T18:52:50.004Z,85890.13
2023-03-17T18:55:17.299Z,85932.88
2023-03-17T18:57:45.077Z,85897.50
2023-03-17T19:00:14.472Z,85974.34
2023-03-17T19:02:41.758Z,85974.34
2023-03-17T19:05:09.264Z,85975.81
2023-03-17T19:07:38.997Z,85987.50
2023-03-17T19:10:14.233Z,85984.09
2023-03-17T19:12:42.569Z,85988.16
2023-03-17T19:15:10.898Z,85988.13
2023-03-17T19:17:39.090Z,85977.13
2023-03-17T19:20:07.041Z,85957.75
2023-03-17T19:22:35.034Z,85997.06
2023-03-17T19:25:04.482Z,85986.78
2023-03-17T19:27:31.655Z,85967.53
2023-03-17T19:29:58.718Z,85985.47
2023-03-17T19:32:25.888Z,85967.44
2023-03-17T19:34:53.268Z,85962.06
2023-03-17T19:37:20.818Z,85985.53
2023-03-17T19:39:48.578Z,85923.44
2023-03-17T19:42:16.430Z,85987.00
2023-03-17T19:44:43.616Z,85928.94
2023-03-17T19:47:10.641Z,85987.00
2023-03-17T19:49:38.331Z,85948.94
2023-03-17T19:52:06.855Z,85982.88
2023-03-17T19:54:34.705Z,85983.09
2023-03-17T19:57:01.798Z,85937.88
2023-03-17T19:59:29.022Z,85964.72
2023-03-17T20:01:56.319Z,85960.00
2023-03-17T20:04:23.508Z,85995.81
2023-03-17T20:06:55.899Z,85970.25
2023-03-17T20:09:25.576Z,85976.47
2023-03-17T20:11:54.001Z,85993.81
2023-03-17T20:14:21.191Z,85987.00
2023-03-17T20:16:50.365Z,85990.47
2023-03-17T20:19:17.574Z,85968.97
2023-03-17T20:21:45.213Z,85975.66
2023-03-17T20:24:14.731Z,85992.47
2023-03-17T20:26:43.600Z,85973.75
2023-03-17T20:29:14.592Z,85974.53
2023-03-17T20:31:42.909Z,85973.91
2023-03-17T20:34:10.767Z,85974.56
2023-03-17T20:36:42.539Z,85988.38
2023-03-17T20:39:13.962Z,85995.41
2023-03-17T20:41:41.552Z,85991.25
2023-03-17T20:44:08.711Z,85989.16
2023-03-17T20:46:36.151Z,85964.28
2023-03-17T20:49:04.289Z,85964.31
2023-03-17T20:51:32.425Z,85955.38
2023-03-17T20:54:00.893Z,85971.94
2023-03-17T20:56:29.952Z,85971.88
2023-03-17T20:58:58.726Z,85981.78
2023-03-17T21:01:26.884Z,85968.66
2023-03-17T21:03:54.092Z,85925.09
2023-03-17T21:06:26.129Z,85894.09
2023-03-17T21:08:53.634Z,85950.72
2023-03-17T21:11:23.205Z,85916.25
2023-03-17T21:13:50.623Z,85962.50
2023-03-17T21:16:24.120Z,85979.13
2023-03-17T21:18:52.158Z,85946.66
2023-03-17T21:21:20.012Z,85968.03
2023-03-17T21:23:47.745Z,85931.47
2023-03-17T21:26:15.409Z,85938.41
2023-03-17T21:28:42.786Z,85939.09
2023-03-17T21:31:12.417Z,85975.09
2023-03-17T21:33:40.528Z,85929.41
2023-03-17T21:36:08.065Z,85878.91
2023-03-17T21:38:35.909Z,85972.09
2023-03-17T21:41:33.656Z,85967.34
2023-03-17T21:44:01.799Z,85946.66
2023-03-17T21:46:29.928Z,85963.97
2023-03-17T21:48:57.166Z,85946.63
2023-03-17T21:51:25.422Z,85955.78
2023-03-17T21:53:53.159Z,85866.06
2023-03-17T21:56:21.291Z,85890.94
2023-03-17T21:58:49.164Z,85911.66
2023-03-17T22:01:18.060Z,85922.75
2023-03-17T22:03:45.236Z,85940.69
2023-03-17T22:06:22.517Z,85896.41
2023-03-17T22:08:50.852Z,85930.25
2023-03-17T22:11:19.455Z,85875.78
2023-03-17T22:13:48.047Z,85875.09
2023-03-17T22:16:16.704Z,85937.19
2023-03-17T22:18:44.010Z,85899.16
2023-03-17T22:21:11.476Z,85941.34
2023-03-17T22:23:42.649Z,85941.31
2023-03-17T22:26:15.299Z,85930.81
2023-03-17T22:28:44.789Z,85896.31
2023-03-17T22:31:20.805Z,85928.16
2023-03-17T22:33:53.354Z,85944.72
2023-03-17T22:36:21.552Z,85854.94
2023-03-17T22:38:48.853Z,85951.53
2023-03-17T22:41:19.282Z,85941.28
2023-03-17T22:43:47.256Z,85933.66
2023-03-17T22:46:15.072Z,85946.03
2023-03-17T22:48:42.554Z,85884.56
2023-03-17T22:51:12.263Z,85932.97
2023-03-17T22:53:40.348Z,85932.34
2023-03-17T22:56:08.908Z,85884.66
2023-03-17T22:58:36.139Z,85912.28
2023-03-17T23:01:06.685Z,85939.28
2023-03-17T23:03:34.581Z,85926.81
2023-03-17T23:06:04.055Z,85905.41
2023-03-17T23:08:35.167Z,85902.56
2023-03-17T23:11:08.724Z,85931.00
2023-03-17T23:13:43.439Z,85906.69
2023-03-17T23:16:10.816Z,85883.88
2023-03-17T23:18:37.862Z,85907.28
2023-03-17T23:21:05.894Z,85928.88
2023-03-17T23:23:33.641Z,85928.03
2023-03-17T23:26:00.789Z,85925.31
2023-03-17T23:28:27.998Z,85905.91
2023-03-17T23:30:55.483Z,85885.84
2023-03-17T23:33:25.637Z,85864.44
2023-03-17T23:35:53.480Z,85925.84
2023-03-17T23:38:21.643Z,85897.59
2023-03-17T23:40:49.826Z,85908.00
2023-03-17T23:43:16.995Z,85887.97
2023-03-17T23:45:44.248Z,85917.75
2023-03-17T23:48:11.971Z,85894.88
2023-03-17T23:50:41.185Z,85879.59
2023-03-17T23:53:09.800Z,85935.50
2023-03-17T23:55:36.848Z,85845.78
2023-03-17T23:58:03.923Z,85880.09
